RKTU/CHN METAR and TAF weather

Enter ICAO airport designator
Station Type Date Time Source
RKTU METAR 2020/02/21 02:00 UTC NOAA

RKTU 210200Z 22002KT 8000 NSC 06/01 Q1033


Station Type Date Time Source
RKTU Decoded METAR 2020/02/21 02:00 UTC NOAA

Chongju Ab, Korea, South (RKTU) 36-42N 127-30E 66M
Feb 20, 2020 - 09:00 PM EST / 2020.02.21 0200 UTC
Wind: from the SW (220 degrees) at 2 MPH (2 KT):0
Visibility: 4 mile(s):0
Temperature: 42 F (6 C)
Dew Point: 33 F (1 C)
Relative Humidity: 70%
Pressure (altimeter): 30.50 in. Hg (1033 hPa)
ob: RKTU 210200Z 22002KT 8000 NSC 06/01 Q1033
cycle: 2

Station Type Date Time Source
RKTU TAF 2020/02/20 19:30 UTC NOAA

TAF
AMD RKTU 201930Z 2019/2124 06006KT 1600 BR SCT030 TNM02/2021Z TX12/2106Z
BECMG 2100/2101 24006KT 4800 SCT030 BKN200
BECMG 2102/2103 9999 NSW
BECMG 2112/2113 4800 -RA BR BKN030 BKN100

Example: see airport list